Terminal Aerodrome Forecast
Issued by NWS Medford, OR

Home | Current Version | Previous Version | Text Only | Print | Product List | Glossary On
Versions: 1 2 3 4 5 6 7 8 9 10 11 12 13 14 15 16 17 18 19 20 21
453
FTUS46 KMFR 221857 AAB
TAFMFR
TAF AMD
KMFR 221857Z 2219/2318 30005KT P6SM SCT025
     FM222000 31010KT P6SM SCT025
     FM230300 VRB03KT P6SM SCT040
     FM231500 36001KT 6SM BR BKN250=

USA.gov is the U.S. government's official web portal to all federal, state and local government web resources and services.